sensor_id;sensor_type;location;lat;lon;timestamp;P1;durP1;ratioP1;P2;durP2;ratioP2
43519;SDS011;46848;51.980;5.918;2023-05-10T00:01:01;11.88;;;10.30;;
43519;SDS011;46848;51.980;5.918;2023-05-10T00:03:27;13.52;;;11.13;;
43519;SDS011;46848;51.980;5.918;2023-05-10T00:05:53;14.20;;;11.50;;
43519;SDS011;46848;51.980;5.918;2023-05-10T00:08:18;15.93;;;12.82;;
43519;SDS011;46848;51.980;5.918;2023-05-10T00:10:44;15.52;;;13.02;;
43519;SDS011;46848;51.980;5.918;2023-05-10T00:13:10;17.08;;;14.10;;
43519;SDS011;46848;51.980;5.918;2023-05-10T00:15:35;18.45;;;14.38;;
43519;SDS011;46848;51.980;5.918;2023-05-10T00:18:01;23.25;;;16.77;;
43519;SDS011;46848;51.980;5.918;2023-05-10T00:20:27;21.23;;;15.82;;
43519;SDS011;46848;51.980;5.918;2023-05-10T00:22:52;19.83;;;15.07;;
43519;SDS011;46848;51.980;5.918;2023-05-10T00:25:19;21.65;;;16.15;;
43519;SDS011;46848;51.980;5.918;2023-05-10T00:27:46;20.73;;;15.52;;
43519;SDS011;46848;51.980;5.918;2023-05-10T00:30:12;23.10;;;17.33;;
43519;SDS011;46848;51.980;5.918;2023-05-10T00:32:38;22.00;;;17.58;;
43519;SDS011;46848;51.980;5.918;2023-05-10T00:35:04;21.67;;;16.90;;
43519;SDS011;46848;51.980;5.918;2023-05-10T00:37:29;24.70;;;19.33;;
43519;SDS011;46848;51.980;5.918;2023-05-10T00:39:55;21.55;;;18.15;;
43519;SDS011;46848;51.980;5.918;2023-05-10T00:42:21;25.67;;;20.13;;
43519;SDS011;46848;51.980;5.918;2023-05-10T00:44:47;23.98;;;19.88;;
43519;SDS011;46848;51.980;5.918;2023-05-10T00:47:13;26.60;;;20.70;;
43519;SDS011;46848;51.980;5.918;2023-05-10T00:49:39;25.88;;;21.20;;
43519;SDS011;46848;51.980;5.918;2023-05-10T00:52:05;29.80;;;23.40;;
43519;SDS011;46848;51.980;5.918;2023-05-10T00:54:34;27.70;;;22.10;;
43519;SDS011;46848;51.980;5.918;2023-05-10T00:57:00;31.15;;;23.48;;
43519;SDS011;46848;51.980;5.918;2023-05-10T00:59:26;27.75;;;22.05;;
43519;SDS011;46848;51.980;5.918;2023-05-10T01:01:51;29.27;;;22.75;;
43519;SDS011;46848;51.980;5.918;2023-05-10T01:04:18;30.05;;;23.58;;
43519;SDS011;46848;51.980;5.918;2023-05-10T01:06:46;30.58;;;23.42;;
43519;SDS011;46848;51.980;5.918;2023-05-10T01:09:12;31.15;;;24.13;;
43519;SDS011;46848;51.980;5.918;2023-05-10T01:11:37;29.17;;;22.60;;
43519;SDS011;46848;51.980;5.918;2023-05-10T01:14:04;31.25;;;24.67;;
43519;SDS011;46848;51.980;5.918;2023-05-10T01:16:32;31.88;;;24.70;;
43519;SDS011;46848;51.980;5.918;2023-05-10T01:19:01;32.10;;;23.80;;
43519;SDS011;46848;51.980;5.918;2023-05-10T01:21:33;31.77;;;22.92;;
43519;SDS011;46848;51.980;5.918;2023-05-10T01:27:03;30.63;;;22.70;;
43519;SDS011;46848;51.980;5.918;2023-05-10T01:29:44;35.25;;;25.83;;
43519;SDS011;46848;51.980;5.918;2023-05-10T01:32:36;30.88;;;23.25;;
43519;SDS011;46848;51.980;5.918;2023-05-10T01:35:08;32.40;;;24.48;;
43519;SDS011;46848;51.980;5.918;2023-05-10T01:40:39;30.83;;;24.35;;
43519;SDS011;46848;51.980;5.918;2023-05-10T01:43:18;31.48;;;23.52;;
43519;SDS011;46848;51.980;5.918;2023-05-10T01:45:54;31.90;;;23.70;;
43519;SDS011;46848;51.980;5.918;2023-05-10T01:48:40;32.55;;;24.85;;
43519;SDS011;46848;51.980;5.918;2023-05-10T01:51:12;31.25;;;23.40;;
43519;SDS011;46848;51.980;5.918;2023-05-10T01:53:46;31.60;;;23.73;;
43519;SDS011;46848;51.980;5.918;2023-05-10T01:56:13;30.63;;;22.27;;
43519;SDS011;46848;51.980;5.918;2023-05-10T01:58:40;33.60;;;24.25;;
43519;SDS011;46848;51.980;5.918;2023-05-10T02:01:10;36.80;;;24.20;;
43519;SDS011;46848;51.980;5.918;2023-05-10T02:03:36;31.42;;;23.58;;
43519;SDS011;46848;51.980;5.918;2023-05-10T02:06:04;34.03;;;24.70;;
43519;SDS011;46848;51.980;5.918;2023-05-10T02:08:31;33.67;;;23.13;;
43519;SDS011;46848;51.980;5.918;2023-05-10T02:11:00;30.40;;;22.20;;
43519;SDS011;46848;51.980;5.918;2023-05-10T02:13:27;30.52;;;22.55;;
43519;SDS011;46848;51.980;5.918;2023-05-10T02:15:56;31.13;;;23.13;;
43519;SDS011;46848;51.980;5.918;2023-05-10T02:18:23;31.25;;;23.15;;
43519;SDS011;46848;51.980;5.918;2023-05-10T02:20:50;28.33;;;21.58;;
43519;SDS011;46848;51.980;5.918;2023-05-10T02:23:18;29.30;;;20.63;;
43519;SDS011;46848;51.980;5.918;2023-05-10T02:25:46;28.67;;;21.63;;
43519;SDS011;46848;51.980;5.918;2023-05-10T02:28:13;28.27;;;20.40;;
43519;SDS011;46848;51.980;5.918;2023-05-10T02:30:40;28.00;;;19.95;;
43519;SDS011;46848;51.980;5.918;2023-05-10T02:33:06;32.05;;;22.77;;
43519;SDS011;46848;51.980;5.918;2023-05-10T02:35:32;34.03;;;23.85;;
43519;SDS011;46848;51.980;5.918;2023-05-10T02:37:59;31.23;;;22.25;;
43519;SDS011;46848;51.980;5.918;2023-05-10T02:40:26;32.40;;;22.60;;
43519;SDS011;46848;51.980;5.918;2023-05-10T02:42:54;34.30;;;23.50;;
43519;SDS011;46848;51.980;5.918;2023-05-10T02:45:22;34.40;;;22.98;;
43519;SDS011;46848;51.980;5.918;2023-05-10T02:47:51;33.33;;;22.67;;
43519;SDS011;46848;51.980;5.918;2023-05-10T02:50:17;35.47;;;23.13;;
43519;SDS011;46848;51.980;5.918;2023-05-10T02:52:47;34.55;;;23.25;;
43519;SDS011;46848;51.980;5.918;2023-05-10T02:55:16;37.08;;;24.50;;
43519;SDS011;46848;51.980;5.918;2023-05-10T02:57:48;36.75;;;25.13;;
43519;SDS011;46848;51.980;5.918;2023-05-10T03:00:17;40.67;;;26.58;;
43519;SDS011;46848;51.980;5.918;2023-05-10T03:02:43;37.92;;;25.67;;
43519;SDS011;46848;51.980;5.918;2023-05-10T03:05:08;36.70;;;26.00;;
43519;SDS011;46848;51.980;5.918;2023-05-10T03:07:34;38.50;;;25.80;;
43519;SDS011;46848;51.980;5.918;2023-05-10T03:10:00;37.20;;;26.33;;
43519;SDS011;46848;51.980;5.918;2023-05-10T03:15:19;41.28;;;27.75;;
43519;SDS011;46848;51.980;5.918;2023-05-10T03:18:10;41.60;;;28.38;;
43519;SDS011;46848;51.980;5.918;2023-05-10T03:20:50;41.28;;;28.45;;
43519;SDS011;46848;51.980;5.918;2023-05-10T03:23:21;45.47;;;29.90;;
43519;SDS011;46848;51.980;5.918;2023-05-10T03:26:08;41.95;;;27.98;;
43519;SDS011;46848;51.980;5.918;2023-05-10T03:28:34;45.30;;;30.58;;
43519;SDS011;46848;51.980;5.918;2023-05-10T03:31:02;40.60;;;28.58;;
43519;SDS011;46848;51.980;5.918;2023-05-10T03:33:30;42.78;;;29.20;;
43519;SDS011;46848;51.980;5.918;2023-05-10T03:35:57;38.13;;;27.75;;
43519;SDS011;46848;51.980;5.918;2023-05-10T03:38:22;45.42;;;28.35;;
43519;SDS011;46848;51.980;5.918;2023-05-10T03:40:48;37.97;;;26.58;;
43519;SDS011;46848;51.980;5.918;2023-05-10T03:43:14;38.35;;;26.50;;
43519;SDS011;46848;51.980;5.918;2023-05-10T03:45:40;36.00;;;25.25;;
43519;SDS011;46848;51.980;5.918;2023-05-10T03:48:05;36.22;;;26.77;;
43519;SDS011;46848;51.980;5.918;2023-05-10T03:50:31;39.90;;;28.10;;
43519;SDS011;46848;51.980;5.918;2023-05-10T03:52:56;39.35;;;26.88;;
43519;SDS011;46848;51.980;5.918;2023-05-10T03:55:22;41.03;;;26.35;;
43519;SDS011;46848;51.980;5.918;2023-05-10T03:57:48;36.03;;;25.77;;
43519;SDS011;46848;51.980;5.918;2023-05-10T04:00:14;41.35;;;28.65;;
43519;SDS011;46848;51.980;5.918;2023-05-10T04:02:40;40.47;;;27.08;;
43519;SDS011;46848;51.980;5.918;2023-05-10T04:05:06;43.00;;;29.83;;
43519;SDS011;46848;51.980;5.918;2023-05-10T04:07:32;42.03;;;27.10;;
43519;SDS011;46848;51.980;5.918;2023-05-10T04:09:57;41.38;;;27.85;;
43519;SDS011;46848;51.980;5.918;2023-05-10T04:12:23;38.03;;;27.20;;
43519;SDS011;46848;51.980;5.918;2023-05-10T04:14:49;39.00;;;26.52;;
43519;SDS011;46848;51.980;5.918;2023-05-10T04:17:14;36.13;;;25.58;;
43519;SDS011;46848;51.980;5.918;2023-05-10T04:19:40;38.50;;;25.73;;
43519;SDS011;46848;51.980;5.918;2023-05-10T04:22:05;37.05;;;24.83;;
43519;SDS011;46848;51.980;5.918;2023-05-10T04:24:31;41.22;;;28.00;;
43519;SDS011;46848;51.980;5.918;2023-05-10T04:26:57;38.25;;;25.25;;
43519;SDS011;46848;51.980;5.918;2023-05-10T04:29:22;36.92;;;25.17;;
43519;SDS011;46848;51.980;5.918;2023-05-10T04:31:48;34.17;;;24.15;;
43519;SDS011;46848;51.980;5.918;2023-05-10T04:34:13;34.88;;;23.95;;
43519;SDS011;46848;51.980;5.918;2023-05-10T04:36:39;36.80;;;25.05;;
43519;SDS011;46848;51.980;5.918;2023-05-10T04:39:05;35.65;;;23.42;;
43519;SDS011;46848;51.980;5.918;2023-05-10T04:41:30;33.58;;;21.98;;
43519;SDS011;46848;51.980;5.918;2023-05-10T04:44:05;32.65;;;22.65;;
43519;SDS011;46848;51.980;5.918;2023-05-10T04:46:31;34.25;;;23.92;;
43519;SDS011;46848;51.980;5.918;2023-05-10T04:48:56;33.80;;;21.25;;
43519;SDS011;46848;51.980;5.918;2023-05-10T04:51:22;34.10;;;23.17;;
43519;SDS011;46848;51.980;5.918;2023-05-10T04:53:48;35.17;;;22.05;;
43519;SDS011;46848;51.980;5.918;2023-05-10T04:56:13;34.47;;;22.92;;
43519;SDS011;46848;51.980;5.918;2023-05-10T04:58:39;32.85;;;22.77;;
43519;SDS011;46848;51.980;5.918;2023-05-10T05:01:05;33.95;;;21.48;;
43519;SDS011;46848;51.980;5.918;2023-05-10T05:03:32;31.35;;;21.38;;
43519;SDS011;46848;51.980;5.918;2023-05-10T05:05:58;31.13;;;21.90;;
43519;SDS011;46848;51.980;5.918;2023-05-10T05:08:23;36.22;;;23.08;;
43519;SDS011;46848;51.980;5.918;2023-05-10T05:10:49;35.20;;;23.15;;
43519;SDS011;46848;51.980;5.918;2023-05-10T05:13:15;33.72;;;22.40;;
43519;SDS011;46848;51.980;5.918;2023-05-10T05:15:40;37.08;;;24.20;;
43519;SDS011;46848;51.980;5.918;2023-05-10T05:18:06;34.08;;;21.95;;
43519;SDS011;46848;51.980;5.918;2023-05-10T05:20:32;32.20;;;21.38;;
43519;SDS011;46848;51.980;5.918;2023-05-10T05:22:59;33.65;;;22.90;;
43519;SDS011;46848;51.980;5.918;2023-05-10T05:25:25;38.20;;;22.60;;
43519;SDS011;46848;51.980;5.918;2023-05-10T05:27:50;31.98;;;21.75;;
43519;SDS011;46848;51.980;5.918;2023-05-10T05:30:16;31.83;;;20.80;;
43519;SDS011;46848;51.980;5.918;2023-05-10T05:32:42;29.98;;;20.17;;
43519;SDS011;46848;51.980;5.918;2023-05-10T05:35:07;36.10;;;22.75;;
43519;SDS011;46848;51.980;5.918;2023-05-10T05:37:33;32.22;;;20.15;;
43519;SDS011;46848;51.980;5.918;2023-05-10T05:39:59;28.40;;;19.17;;
43519;SDS011;46848;51.980;5.918;2023-05-10T05:42:26;28.02;;;18.67;;
43519;SDS011;46848;51.980;5.918;2023-05-10T05:44:52;32.00;;;20.25;;
43519;SDS011;46848;51.980;5.918;2023-05-10T05:47:17;33.45;;;20.98;;
43519;SDS011;46848;51.980;5.918;2023-05-10T05:49:43;29.20;;;20.23;;
43519;SDS011;46848;51.980;5.918;2023-05-10T05:52:10;29.15;;;20.17;;
43519;SDS011;46848;51.980;5.918;2023-05-10T05:54:36;29.65;;;20.25;;
43519;SDS011;46848;51.980;5.918;2023-05-10T05:57:02;29.05;;;19.85;;
43519;SDS011;46848;51.980;5.918;2023-05-10T05:59:27;27.63;;;19.15;;
43519;SDS011;46848;51.980;5.918;2023-05-10T06:01:53;28.65;;;19.35;;
43519;SDS011;46848;51.980;5.918;2023-05-10T06:04:19;28.85;;;19.80;;
43519;SDS011;46848;51.980;5.918;2023-05-10T06:06:44;28.88;;;19.08;;
43519;SDS011;46848;51.980;5.918;2023-05-10T06:09:10;31.25;;;19.50;;
43519;SDS011;46848;51.980;5.918;2023-05-10T06:11:36;33.67;;;20.05;;
43519;SDS011;46848;51.980;5.918;2023-05-10T06:14:03;34.95;;;22.00;;
43519;SDS011;46848;51.980;5.918;2023-05-10T06:16:31;34.25;;;20.88;;
43519;SDS011;46848;51.980;5.918;2023-05-10T06:18:57;33.35;;;21.38;;
43519;SDS011;46848;51.980;5.918;2023-05-10T06:21:23;30.85;;;21.02;;
43519;SDS011;46848;51.980;5.918;2023-05-10T06:23:48;30.13;;;19.40;;
43519;SDS011;46848;51.980;5.918;2023-05-10T06:26:14;36.58;;;20.75;;
43519;SDS011;46848;51.980;5.918;2023-05-10T06:28:40;37.20;;;20.70;;
43519;SDS011;46848;51.980;5.918;2023-05-10T06:31:06;33.92;;;19.98;;
43519;SDS011;46848;51.980;5.918;2023-05-10T06:33:31;32.92;;;20.20;;
43519;SDS011;46848;51.980;5.918;2023-05-10T06:35:58;35.33;;;21.42;;
43519;SDS011;46848;51.980;5.918;2023-05-10T06:38:23;34.95;;;20.92;;
43519;SDS011;46848;51.980;5.918;2023-05-10T06:40:49;34.88;;;22.27;;
43519;SDS011;46848;51.980;5.918;2023-05-10T06:43:15;35.28;;;22.48;;
43519;SDS011;46848;51.980;5.918;2023-05-10T06:45:40;32.80;;;20.33;;
43519;SDS011;46848;51.980;5.918;2023-05-10T06:48:06;32.33;;;21.15;;
43519;SDS011;46848;51.980;5.918;2023-05-10T06:50:32;33.35;;;20.63;;
43519;SDS011;46848;51.980;5.918;2023-05-10T06:52:58;31.63;;;19.60;;
43519;SDS011;46848;51.980;5.918;2023-05-10T06:55:24;31.35;;;20.02;;
43519;SDS011;46848;51.980;5.918;2023-05-10T06:57:51;35.08;;;19.67;;
43519;SDS011;46848;51.980;5.918;2023-05-10T07:00:17;33.63;;;22.13;;
43519;SDS011;46848;51.980;5.918;2023-05-10T07:02:43;29.75;;;20.08;;
43519;SDS011;46848;51.980;5.918;2023-05-10T07:05:09;31.88;;;20.20;;
43519;SDS011;46848;51.980;5.918;2023-05-10T07:07:35;31.77;;;21.33;;
43519;SDS011;46848;51.980;5.918;2023-05-10T07:10:01;31.65;;;20.30;;
43519;SDS011;46848;51.980;5.918;2023-05-10T07:12:26;30.27;;;19.73;;
43519;SDS011;46848;51.980;5.918;2023-05-10T07:14:52;30.20;;;20.08;;
43519;SDS011;46848;51.980;5.918;2023-05-10T07:17:18;30.30;;;20.08;;
43519;SDS011;46848;51.980;5.918;2023-05-10T07:19:43;29.88;;;21.13;;
43519;SDS011;46848;51.980;5.918;2023-05-10T07:22:09;33.58;;;21.83;;
43519;SDS011;46848;51.980;5.918;2023-05-10T07:24:35;32.40;;;20.77;;
43519;SDS011;46848;51.980;5.918;2023-05-10T07:27:01;29.20;;;20.10;;
43519;SDS011;46848;51.980;5.918;2023-05-10T07:29:26;33.13;;;21.35;;
43519;SDS011;46848;51.980;5.918;2023-05-10T07:31:52;31.83;;;21.65;;
43519;SDS011;46848;51.980;5.918;2023-05-10T07:34:18;32.78;;;22.67;;
43519;SDS011;46848;51.980;5.918;2023-05-10T07:36:44;34.22;;;22.15;;
43519;SDS011;46848;51.980;5.918;2023-05-10T07:39:10;35.15;;;22.30;;
43519;SDS011;46848;51.980;5.918;2023-05-10T07:41:35;37.70;;;23.08;;
43519;SDS011;46848;51.980;5.918;2023-05-10T07:44:02;38.15;;;23.30;;
43519;SDS011;46848;51.980;5.918;2023-05-10T07:46:28;37.63;;;22.15;;
43519;SDS011;46848;51.980;5.918;2023-05-10T07:48:54;36.75;;;22.88;;
43519;SDS011;46848;51.980;5.918;2023-05-10T07:51:20;34.95;;;21.50;;
43519;SDS011;46848;51.980;5.918;2023-05-10T07:53:46;34.17;;;21.38;;
43519;SDS011;46848;51.980;5.918;2023-05-10T07:56:22;30.77;;;20.05;;
43519;SDS011;46848;51.980;5.918;2023-05-10T07:58:54;26.85;;;17.85;;
43519;SDS011;46848;51.980;5.918;2023-05-10T08:01:21;30.90;;;18.92;;
43519;SDS011;46848;51.980;5.918;2023-05-10T08:03:47;30.77;;;19.15;;
43519;SDS011;46848;51.980;5.918;2023-05-10T08:06:13;32.75;;;19.52;;
43519;SDS011;46848;51.980;5.918;2023-05-10T08:08:40;28.80;;;19.17;;
43519;SDS011;46848;51.980;5.918;2023-05-10T08:11:06;28.58;;;19.23;;
43519;SDS011;46848;51.980;5.918;2023-05-10T08:13:31;29.83;;;18.90;;
43519;SDS011;46848;51.980;5.918;2023-05-10T08:15:57;32.05;;;19.33;;
43519;SDS011;46848;51.980;5.918;2023-05-10T08:18:22;28.90;;;18.55;;
43519;SDS011;46848;51.980;5.918;2023-05-10T08:20:48;31.10;;;19.30;;
43519;SDS011;46848;51.980;5.918;2023-05-10T08:23:14;26.55;;;18.15;;
43519;SDS011;46848;51.980;5.918;2023-05-10T08:25:39;30.30;;;18.98;;
43519;SDS011;46848;51.980;5.918;2023-05-10T08:28:05;30.45;;;17.92;;
43519;SDS011;46848;51.980;5.918;2023-05-10T08:30:30;30.63;;;18.42;;
43519;SDS011;46848;51.980;5.918;2023-05-10T08:32:56;29.88;;;19.15;;
43519;SDS011;46848;51.980;5.918;2023-05-10T08:35:22;31.35;;;19.35;;
43519;SDS011;46848;51.980;5.918;2023-05-10T08:37:47;28.02;;;18.88;;
43519;SDS011;46848;51.980;5.918;2023-05-10T08:40:13;26.85;;;17.85;;
43519;SDS011;46848;51.980;5.918;2023-05-10T08:42:41;26.75;;;17.60;;
43519;SDS011;46848;51.980;5.918;2023-05-10T08:45:12;27.15;;;17.83;;
43519;SDS011;46848;51.980;5.918;2023-05-10T08:47:39;25.67;;;16.75;;
43519;SDS011;46848;51.980;5.918;2023-05-10T08:50:06;25.75;;;16.67;;
43519;SDS011;46848;51.980;5.918;2023-05-10T08:52:32;24.17;;;15.50;;
43519;SDS011;46848;51.980;5.918;2023-05-10T08:55:03;21.98;;;14.15;;
43519;SDS011;46848;51.980;5.918;2023-05-10T08:57:29;19.73;;;13.27;;
43519;SDS011;46848;51.980;5.918;2023-05-10T08:59:55;20.65;;;13.73;;
43519;SDS011;46848;51.980;5.918;2023-05-10T09:02:20;16.92;;;12.43;;
43519;SDS011;46848;51.980;5.918;2023-05-10T09:04:48;19.55;;;12.80;;
43519;SDS011;46848;51.980;5.918;2023-05-10T09:07:13;17.10;;;12.00;;
43519;SDS011;46848;51.980;5.918;2023-05-10T09:09:39;18.45;;;11.43;;
43519;SDS011;46848;51.980;5.918;2023-05-10T09:12:05;16.15;;;11.52;;
43519;SDS011;46848;51.980;5.918;2023-05-10T09:14:32;13.38;;;9.88;;
43519;SDS011;46848;51.980;5.918;2023-05-10T09:17:00;16.65;;;9.93;;
43519;SDS011;46848;51.980;5.918;2023-05-10T09:19:27;16.45;;;9.48;;
43519;SDS011;46848;51.980;5.918;2023-05-10T09:21:53;13.93;;;9.00;;
43519;SDS011;46848;51.980;5.918;2023-05-10T09:24:18;13.40;;;8.00;;
43519;SDS011;46848;51.980;5.918;2023-05-10T09:26:47;11.68;;;7.63;;
43519;SDS011;46848;51.980;5.918;2023-05-10T09:29:13;10.82;;;6.85;;
43519;SDS011;46848;51.980;5.918;2023-05-10T09:31:46;10.50;;;6.10;;
43519;SDS011;46848;51.980;5.918;2023-05-10T09:34:19;9.48;;;6.30;;
43519;SDS011;46848;51.980;5.918;2023-05-10T09:36:51;10.18;;;6.35;;
43519;SDS011;46848;51.980;5.918;2023-05-10T09:39:18;9.45;;;6.07;;
43519;SDS011;46848;51.980;5.918;2023-05-10T09:41:44;10.25;;;6.28;;
43519;SDS011;46848;51.980;5.918;2023-05-10T09:44:10;9.82;;;6.47;;
43519;SDS011;46848;51.980;5.918;2023-05-10T09:46:35;8.77;;;5.90;;
43519;SDS011;46848;51.980;5.918;2023-05-10T09:49:01;8.63;;;6.03;;
43519;SDS011;46848;51.980;5.918;2023-05-10T09:51:27;7.70;;;5.40;;
43519;SDS011;46848;51.980;5.918;2023-05-10T09:54:11;7.03;;;4.90;;
43519;SDS011;46848;51.980;5.918;2023-05-10T09:56:41;8.38;;;5.82;;
43519;SDS011;46848;51.980;5.918;2023-05-10T09:59:09;8.35;;;5.97;;
43519;SDS011;46848;51.980;5.918;2023-05-10T10:01:36;9.15;;;5.80;;
43519;SDS011;46848;51.980;5.918;2023-05-10T10:04:06;8.32;;;6.10;;
43519;SDS011;46848;51.980;5.918;2023-05-10T10:06:39;9.65;;;6.60;;
43519;SDS011;46848;51.980;5.918;2023-05-10T10:09:06;9.45;;;6.00;;
43519;SDS011;46848;51.980;5.918;2023-05-10T10:11:34;8.00;;;6.07;;
43519;SDS011;46848;51.980;5.918;2023-05-10T10:14:00;10.65;;;6.05;;
43519;SDS011;46848;51.980;5.918;2023-05-10T10:16:27;9.32;;;5.78;;
43519;SDS011;46848;51.980;5.918;2023-05-10T10:18:56;8.07;;;5.07;;
43519;SDS011;46848;51.980;5.918;2023-05-10T10:21:22;8.90;;;5.25;;
43519;SDS011;46848;51.980;5.918;2023-05-10T10:23:48;8.88;;;5.85;;
43519;SDS011;46848;51.980;5.918;2023-05-10T10:26:14;7.88;;;5.47;;
43519;SDS011;46848;51.980;5.918;2023-05-10T10:31:26;8.55;;;5.95;;
43519;SDS011;46848;51.980;5.918;2023-05-10T10:34:07;9.73;;;5.97;;
43519;SDS011;46848;51.980;5.918;2023-05-10T10:36:42;10.25;;;7.03;;
43519;SDS011;46848;51.980;5.918;2023-05-10T10:39:11;9.80;;;6.97;;
43519;SDS011;46848;51.980;5.918;2023-05-10T10:41:38;9.77;;;7.20;;
43519;SDS011;46848;51.980;5.918;2023-05-10T10:47:10;9.90;;;5.75;;
43519;SDS011;46848;51.980;5.918;2023-05-10T10:50:06;11.03;;;7.10;;
43519;SDS011;46848;51.980;5.918;2023-05-10T10:52:38;9.48;;;6.45;;
43519;SDS011;46848;51.980;5.918;2023-05-10T10:55:08;10.40;;;6.40;;
43519;SDS011;46848;51.980;5.918;2023-05-10T10:57:48;11.25;;;7.38;;
43519;SDS011;46848;51.980;5.918;2023-05-10T11:10:53;7.88;;;6.10;;
43519;SDS011;46848;51.980;5.918;2023-05-10T11:13:40;10.80;;;7.28;;
43519;SDS011;46848;51.980;5.918;2023-05-10T11:16:24;9.93;;;6.88;;
43519;SDS011;46848;51.980;5.918;2023-05-10T11:18:54;11.95;;;7.57;;
43519;SDS011;46848;51.980;5.918;2023-05-10T11:21:26;8.75;;;6.18;;
43519;SDS011;46848;51.980;5.918;2023-05-10T11:23:53;10.23;;;6.57;;
43519;SDS011;46848;51.980;5.918;2023-05-10T11:26:30;8.52;;;6.30;;
43519;SDS011;46848;51.980;5.918;2023-05-10T11:28:57;8.85;;;6.47;;
43519;SDS011;46848;51.980;5.918;2023-05-10T11:31:25;9.50;;;6.95;;
43519;SDS011;46848;51.980;5.918;2023-05-10T11:33:52;8.27;;;5.85;;
43519;SDS011;46848;51.980;5.918;2023-05-10T11:36:23;9.50;;;5.82;;
43519;SDS011;46848;51.980;5.918;2023-05-10T11:38:54;9.18;;;6.20;;
43519;SDS011;46848;51.980;5.918;2023-05-10T11:41:21;9.43;;;5.10;;
43519;SDS011;46848;51.980;5.918;2023-05-10T11:43:52;10.13;;;5.95;;
43519;SDS011;46848;51.980;5.918;2023-05-10T11:46:19;8.48;;;5.60;;
43519;SDS011;46848;51.980;5.918;2023-05-10T11:48:46;6.63;;;4.88;;
43519;SDS011;46848;51.980;5.918;2023-05-10T11:51:15;8.30;;;5.40;;
43519;SDS011;46848;51.980;5.918;2023-05-10T11:53:44;8.95;;;5.15;;
43519;SDS011;46848;51.980;5.918;2023-05-10T11:56:10;6.60;;;4.65;;
43519;SDS011;46848;51.980;5.918;2023-05-10T11:58:36;9.50;;;5.57;;
43519;SDS011;46848;51.980;5.918;2023-05-10T12:01:03;10.55;;;6.18;;
43519;SDS011;46848;51.980;5.918;2023-05-10T12:03:31;7.65;;;5.63;;
43519;SDS011;46848;51.980;5.918;2023-05-10T12:05:57;6.88;;;5.47;;
43519;SDS011;46848;51.980;5.918;2023-05-10T12:08:25;8.20;;;5.40;;
43519;SDS011;46848;51.980;5.918;2023-05-10T12:10:53;7.35;;;4.95;;
43519;SDS011;46848;51.980;5.918;2023-05-10T12:13:28;7.13;;;4.93;;
43519;SDS011;46848;51.980;5.918;2023-05-10T12:15:54;6.68;;;4.97;;
43519;SDS011;46848;51.980;5.918;2023-05-10T12:18:23;9.55;;;5.60;;
43519;SDS011;46848;51.980;5.918;2023-05-10T12:20:52;8.82;;;5.07;;
43519;SDS011;46848;51.980;5.918;2023-05-10T12:23:18;7.07;;;5.25;;
43519;SDS011;46848;51.980;5.918;2023-05-10T12:25:45;8.90;;;5.80;;
43519;SDS011;46848;51.980;5.918;2023-05-10T12:28:11;8.07;;;5.25;;
43519;SDS011;46848;51.980;5.918;2023-05-10T12:30:37;8.70;;;4.70;;
43519;SDS011;46848;51.980;5.918;2023-05-10T12:33:07;8.35;;;4.68;;
43519;SDS011;46848;51.980;5.918;2023-05-10T12:35:43;8.47;;;6.00;;
43519;SDS011;46848;51.980;5.918;2023-05-10T12:38:28;7.85;;;5.05;;
43519;SDS011;46848;51.980;5.918;2023-05-10T12:41:00;8.15;;;4.78;;
43519;SDS011;46848;51.980;5.918;2023-05-10T12:43:27;7.18;;;4.57;;
43519;SDS011;46848;51.980;5.918;2023-05-10T12:45:53;6.88;;;4.53;;
43519;SDS011;46848;51.980;5.918;2023-05-10T12:48:19;10.70;;;5.03;;
43519;SDS011;46848;51.980;5.918;2023-05-10T12:50:45;8.55;;;4.20;;
43519;SDS011;46848;51.980;5.918;2023-05-10T12:53:12;5.85;;;3.80;;
43519;SDS011;46848;51.980;5.918;2023-05-10T12:55:40;5.85;;;4.13;;
43519;SDS011;46848;51.980;5.918;2023-05-10T12:58:06;6.32;;;4.13;;
43519;SDS011;46848;51.980;5.918;2023-05-10T13:00:31;6.40;;;3.72;;
43519;SDS011;46848;51.980;5.918;2023-05-10T13:02:57;6.80;;;4.00;;
43519;SDS011;46848;51.980;5.918;2023-05-10T13:05:23;5.78;;;3.95;;
43519;SDS011;46848;51.980;5.918;2023-05-10T13:07:48;6.55;;;3.95;;
43519;SDS011;46848;51.980;5.918;2023-05-10T13:10:14;6.35;;;4.20;;
43519;SDS011;46848;51.980;5.918;2023-05-10T13:12:40;5.15;;;3.40;;
43519;SDS011;46848;51.980;5.918;2023-05-10T13:15:05;6.65;;;3.53;;
43519;SDS011;46848;51.980;5.918;2023-05-10T13:17:32;8.73;;;4.00;;
43519;SDS011;46848;51.980;5.918;2023-05-10T13:19:57;5.88;;;3.50;;
43519;SDS011;46848;51.980;5.918;2023-05-10T13:22:23;8.95;;;4.38;;
43519;SDS011;46848;51.980;5.918;2023-05-10T13:24:48;6.95;;;3.95;;
43519;SDS011;46848;51.980;5.918;2023-05-10T13:27:14;6.90;;;3.83;;
43519;SDS011;46848;51.980;5.918;2023-05-10T13:29:40;5.78;;;3.78;;
43519;SDS011;46848;51.980;5.918;2023-05-10T13:32:05;6.30;;;3.60;;
43519;SDS011;46848;51.980;5.918;2023-05-10T13:34:31;6.13;;;3.47;;
43519;SDS011;46848;51.980;5.918;2023-05-10T13:36:57;7.45;;;4.47;;
43519;SDS011;46848;51.980;5.918;2023-05-10T13:39:23;5.55;;;4.20;;
43519;SDS011;46848;51.980;5.918;2023-05-10T13:41:48;5.07;;;3.45;;
43519;SDS011;46848;51.980;5.918;2023-05-10T13:44:14;6.22;;;3.60;;
43519;SDS011;46848;51.980;5.918;2023-05-10T13:46:40;6.07;;;3.58;;
43519;SDS011;46848;51.980;5.918;2023-05-10T13:49:07;5.97;;;4.03;;
43519;SDS011;46848;51.980;5.918;2023-05-10T13:51:34;7.75;;;5.20;;
43519;SDS011;46848;51.980;5.918;2023-05-10T13:54:00;10.45;;;5.60;;
43519;SDS011;46848;51.980;5.918;2023-05-10T13:56:26;9.73;;;6.63;;
43519;SDS011;46848;51.980;5.918;2023-05-10T13:58:52;8.82;;;6.10;;
43519;SDS011;46848;51.980;5.918;2023-05-10T14:01:18;8.98;;;6.15;;
43519;SDS011;46848;51.980;5.918;2023-05-10T14:03:44;7.28;;;5.80;;
43519;SDS011;46848;51.980;5.918;2023-05-10T14:06:09;9.43;;;5.88;;
43519;SDS011;46848;51.980;5.918;2023-05-10T14:08:36;10.85;;;6.43;;
43519;SDS011;46848;51.980;5.918;2023-05-10T14:11:02;8.70;;;5.72;;
43519;SDS011;46848;51.980;5.918;2023-05-10T14:13:27;8.18;;;6.65;;
43519;SDS011;46848;51.980;5.918;2023-05-10T14:15:53;9.40;;;5.25;;
43519;SDS011;46848;51.980;5.918;2023-05-10T14:18:19;7.80;;;5.95;;
43519;SDS011;46848;51.980;5.918;2023-05-10T14:20:45;9.77;;;5.82;;
43519;SDS011;46848;51.980;5.918;2023-05-10T14:23:11;9.23;;;5.90;;
43519;SDS011;46848;51.980;5.918;2023-05-10T14:25:37;6.53;;;5.10;;
43519;SDS011;46848;51.980;5.918;2023-05-10T14:28:05;12.15;;;6.30;;
43519;SDS011;46848;51.980;5.918;2023-05-10T14:30:31;7.68;;;5.43;;
43519;SDS011;46848;51.980;5.918;2023-05-10T14:32:57;7.00;;;5.25;;
43519;SDS011;46848;51.980;5.918;2023-05-10T14:35:23;7.53;;;6.00;;
43519;SDS011;46848;51.980;5.918;2023-05-10T14:37:49;8.98;;;6.53;;
43519;SDS011;46848;51.980;5.918;2023-05-10T14:40:15;18.35;;;9.57;;
43519;SDS011;46848;51.980;5.918;2023-05-10T14:42:42;14.75;;;9.68;;
43519;SDS011;46848;51.980;5.918;2023-05-10T14:45:08;12.00;;;9.00;;
43519;SDS011;46848;51.980;5.918;2023-05-10T14:47:35;8.68;;;6.88;;
43519;SDS011;46848;51.980;5.918;2023-05-10T14:50:00;7.18;;;5.55;;
43519;SDS011;46848;51.980;5.918;2023-05-10T14:52:26;7.50;;;4.28;;
43519;SDS011;46848;51.980;5.918;2023-05-10T14:54:52;5.85;;;3.95;;
43519;SDS011;46848;51.980;5.918;2023-05-10T14:57:18;5.28;;;3.75;;